Time;durP1;ratioP1;P1;durP2;ratioP2;P2;SDS_P1;SDS_P2;PMS_P1;PMS_P2;Temp;Humidity;BMP_temperature;BMP_pressure;BME280_temperature;BME280_humidity;BME280_pressure;Samples;Min_cycle;Max_cycle;Signal;HPM_P1;HPM_P2
2023/10/21 00:02:17;;;;;;;23.85;14.18;;;28.70;67.20;;;;;;4944996;28;20047;-67
2023/10/21 00:04:44;;;;;;;27.02;14.05;;;29.40;67.20;;;;;;4953554;29;20374;-67
2023/10/21 00:07:12;;;;;;;31.67;14.70;;;30.10;62.80;;;;;;4940692;28;20074;-67
2023/10/21 00:09:39;;;;;;;29.20;14.40;;;30.20;61.40;;;;;;4934288;29;20047;-66
2023/10/21 00:12:09;;;;;;;24.73;14.40;;;30.10;60.30;;;;;;4934185;29;20063;-68
2023/10/21 00:14:36;;;;;;;35.40;16.38;;;29.80;60.80;;;;;;4934875;29;20465;-66
2023/10/21 00:17:04;;;;;;;30.40;14.80;;;29.90;60.30;;;;;;4934067;29;20028;-67
2023/10/21 00:19:33;;;;;;;34.45;15.38;;;30.10;61.20;;;;;;4964563;28;20033;-68
2023/10/21 00:22:01;;;;;;;31.33;15.70;;;30.20;59.80;;;;;;4965739;28;20043;-69
2023/10/21 00:24:28;;;;;;;28.60;15.43;;;30.10;60.00;;;;;;4953494;29;20035;-69
2023/10/21 00:26:56;;;;;;;28.10;15.57;;;30.30;60.40;;;;;;4953152;28;20349;-69
2023/10/21 00:29:23;;;;;;;26.88;14.65;;;30.30;59.30;;;;;;4935398;29;20028;-69
2023/10/21 00:31:50;;;;;;;22.35;12.43;;;30.40;59.20;;;;;;4934502;29;20040;-69
2023/10/21 00:34:18;;;;;;;23.10;13.80;;;30.20;57.20;;;;;;4938586;29;20040;-69
2023/10/21 00:36:45;;;;;;;20.13;12.27;;;30.70;58.20;;;;;;4952966;28;20030;-69
2023/10/21 00:39:12;;;;;;;22.45;12.50;;;31.00;56.40;;;;;;4937015;29;20497;-68
2023/10/21 00:41:40;;;;;;;20.20;10.93;;;30.80;57.10;;;;;;4933996;29;20024;-69
2023/10/21 00:44:08;;;;;;;17.73;10.57;;;31.20;56.00;;;;;;4934058;29;20028;-69
2023/10/21 00:46:36;;;;;;;17.17;10.57;;;31.40;51.20;;;;;;4933495;29;20402;-69
2023/10/21 00:49:04;;;;;;;19.83;12.00;;;30.80;54.70;;;;;;4934467;29;20549;-68
2023/10/21 00:51:32;;;;;;;20.15;12.25;;;30.90;54.60;;;;;;4934454;29;20389;-69
2023/10/21 00:54:00;;;;;;;21.55;11.02;;;31.10;55.30;;;;;;4957887;28;20030;-68
2023/10/21 00:56:28;;;;;;;27.08;12.27;;;31.00;54.10;;;;;;4964109;28;20125;-68
2023/10/21 00:58:55;;;;;;;22.88;11.93;;;30.40;54.80;;;;;;4972448;28;20027;-69
2023/10/21 01:01:23;;;;;;;21.75;12.18;;;30.20;55.10;;;;;;4972486;28;20026;-69
2023/10/21 01:03:51;;;;;;;22.27;11.15;;;30.20;55.70;;;;;;4953453;28;20028;-69
2023/10/21 01:06:18;;;;;;;20.65;10.25;;;30.60;54.90;;;;;;4941887;28;20397;-68
2023/10/21 01:08:46;;;;;;;22.02;11.10;;;31.00;53.30;;;;;;4933581;29;20032;-69
2023/10/21 01:11:14;;;;;;;20.75;10.85;;;31.30;52.50;;;;;;4951528;28;20198;-69
2023/10/21 01:13:44;;;;;;;29.13;11.77;;;31.10;52.70;;;;;;4951350;28;20039;-69
2023/10/21 01:16:11;;;;;;;19.88;10.27;;;30.90;54.40;;;;;;4952716;29;20035;-69
2023/10/21 01:18:40;;;;;;;17.05;10.15;;;31.50;52.40;;;;;;4952769;29;20035;-68
2023/10/21 01:21:08;;;;;;;17.95;10.75;;;31.60;50.10;;;;;;4952860;29;20020;-69
2023/10/21 01:23:35;;;;;;;17.10;10.15;;;31.50;50.60;;;;;;4951786;29;20031;-69
2023/10/21 01:26:04;;;;;;;18.10;10.02;;;31.60;51.20;;;;;;4952550;28;20350;-70
2023/10/21 01:28:32;;;;;;;15.07;9.88;;;31.60;50.30;;;;;;4971649;28;20050;-68
2023/10/21 01:31:00;;;;;;;16.08;9.45;;;31.60;51.10;;;;;;4971940;28;20043;-70
2023/10/21 01:33:28;;;;;;;14.25;9.20;;;31.40;51.00;;;;;;4947441;28;20114;-69
2023/10/21 01:35:55;;;;;;;15.23;8.88;;;31.40;50.50;;;;;;4947175;29;20027;-69
2023/10/21 01:38:24;;;;;;;14.43;9.80;;;31.60;50.20;;;;;;4950798;29;20339;-69
2023/10/21 01:40:51;;;;;;;18.55;9.70;;;31.80;50.20;;;;;;4937786;29;20324;-69
2023/10/21 01:43:19;;;;;;;13.50;8.85;;;32.40;51.30;;;;;;4936039;28;20373;-69
2023/10/21 01:45:47;;;;;;;13.85;8.30;;;32.60;49.90;;;;;;4947522;29;20059;-69
2023/10/21 01:48:14;;;;;;;12.05;8.52;;;32.80;49.80;;;;;;4951965;28;20027;-69
2023/10/21 01:50:41;;;;;;;14.18;8.40;;;32.60;49.50;;;;;;4952448;29;20539;-69
2023/10/21 01:53:09;;;;;;;15.30;8.52;;;32.80;49.10;;;;;;4952214;28;20031;-69
2023/10/21 01:55:36;;;;;;;14.38;8.50;;;32.60;48.20;;;;;;4951104;28;20058;-69
2023/10/21 01:58:04;;;;;;;15.25;8.95;;;32.50;47.80;;;;;;4935908;29;20461;-70
2023/10/21 02:00:31;;;;;;;14.18;8.45;;;32.20;48.20;;;;;;4937315;28;20035;-69
2023/10/21 02:02:59;;;;;;;16.77;8.73;;;31.90;48.80;;;;;;4952146;28;20472;-69
2023/10/21 02:05:26;;;;;;;13.40;8.25;;;31.90;50.00;;;;;;4950796;29;20135;-68
2023/10/21 02:07:54;;;;;;;15.13;9.70;;;31.90;50.70;;;;;;4920280;29;20125;-68
2023/10/21 02:10:22;;;;;;;16.77;9.25;;;32.10;51.70;;;;;;4947696;28;20043;-69
2023/10/21 02:12:49;;;;;;;12.48;9.05;;;32.50;51.70;;;;;;4948232;29;20093;-68
2023/10/21 02:15:17;;;;;;;12.85;8.82;;;32.80;50.50;;;;;;4933871;29;20051;-68
2023/10/21 02:17:46;;;;;;;17.45;9.02;;;33.10;48.50;;;;;;4942659;28;20053;-69
2023/10/21 02:20:14;;;;;;;18.92;9.40;;;33.70;49.50;;;;;;4954954;29;20038;-68
2023/10/21 02:22:42;;;;;;;20.25;9.30;;;34.30;49.20;;;;;;4954034;29;20027;-68
2023/10/21 02:25:13;;;;;;;15.15;8.70;;;34.50;49.40;;;;;;4939309;29;20029;-69
2023/10/21 02:27:41;;;;;;;17.83;8.98;;;34.60;49.20;;;;;;4936698;29;20118;-69
2023/10/21 02:30:12;;;;;;;13.88;8.40;;;34.90;49.90;;;;;;4936979;29;20123;-69
2023/10/21 02:32:46;;;;;;;13.77;7.70;;;34.90;48.30;;;;;;4918861;29;20512;-68
2023/10/21 02:35:14;;;;;;;14.23;8.15;;;34.40;49.40;;;;;;4947720;28;20453;-69
2023/10/21 02:37:42;;;;;;;13.75;8.00;;;34.20;48.70;;;;;;4954237;28;20067;-68
2023/10/21 02:40:15;;;;;;;13.57;8.70;;;33.90;49.20;;;;;;4950422;29;20023;-69
2023/10/21 02:42:45;;;;;;;18.67;9.32;;;33.70;50.70;;;;;;4955250;29;20030;-69
2023/10/21 02:45:13;;;;;;;15.50;10.15;;;33.80;50.20;;;;;;4955391;29;20027;-69
2023/10/21 02:47:40;;;;;;;15.43;11.40;;;33.40;51.10;;;;;;4948868;28;20428;-68
2023/10/21 02:50:08;;;;;;;16.95;10.40;;;33.50;50.50;;;;;;4952761;29;20031;-68
2023/10/21 02:52:38;;;;;;;15.13;10.40;;;33.70;50.30;;;;;;4955061;28;20040;-68
2023/10/21 02:55:07;;;;;;;18.10;10.15;;;34.00;49.40;;;;;;4953702;28;20035;-68
2023/10/21 02:57:34;;;;;;;17.10;11.15;;;33.90;49.70;;;;;;4974410;28;20065;-67
2023/10/21 03:00:04;;;;;;;15.50;10.98;;;33.50;50.40;;;;;;4956698;28;20118;-67
2023/10/21 03:02:32;;;;;;;16.67;10.48;;;33.40;50.60;;;;;;4948180;29;20023;-67
2023/10/21 03:04:59;;;;;;;17.23;10.85;;;33.20;51.00;;;;;;4943131;29;20058;-68
2023/10/21 03:07:26;;;;;;;21.40;11.80;;;33.10;50.90;;;;;;4941280;29;20028;-68
2023/10/21 03:09:54;;;;;;;15.57;11.43;;;32.90;51.00;;;;;;4969204;28;20105;-68
2023/10/21 03:12:21;;;;;;;18.38;10.82;;;32.70;51.50;;;;;;4973909;28;20034;-68
2023/10/21 03:14:48;;;;;;;12.25;9.65;;;32.90;50.20;;;;;;4954106;28;20039;-68
2023/10/21 03:17:16;;;;;;;17.80;10.52;;;33.10;50.00;;;;;;4954420;29;20056;-68
2023/10/21 03:19:43;;;;;;;17.27;11.23;;;33.20;50.20;;;;;;4954828;29;20027;-68
2023/10/21 03:22:10;;;;;;;16.35;10.48;;;33.20;49.70;;;;;;4948651;29;20023;-67
2023/10/21 03:24:37;;;;;;;16.60;11.07;;;32.90;49.50;;;;;;4954384;28;20122;-67
2023/10/21 03:27:05;;;;;;;18.13;11.35;;;32.40;50.60;;;;;;4970001;28;20033;-67
2023/10/21 03:29:33;;;;;;;17.55;11.50;;;32.30;50.60;;;;;;4973388;28;20023;-68
2023/10/21 03:32:00;;;;;;;21.05;11.82;;;32.30;50.90;;;;;;4951690;28;20377;-67
2023/10/21 03:34:28;;;;;;;18.52;12.57;;;32.20;50.90;;;;;;4954247;29;20039;-67
2023/10/21 03:36:55;;;;;;;19.00;12.52;;;32.10;50.70;;;;;;4954442;28;20161;-67
2023/10/21 03:39:22;;;;;;;21.40;12.57;;;32.20;51.10;;;;;;4943597;29;20074;-68
2023/10/21 03:41:50;;;;;;;18.52;11.93;;;32.30;51.30;;;;;;4943322;29;20062;-68
2023/10/21 03:44:17;;;;;;;19.33;12.60;;;32.40;51.10;;;;;;4971087;28;20177;-67
2023/10/21 03:46:45;;;;;;;23.25;13.65;;;32.30;51.20;;;;;;4973643;28;20023;-68
2023/10/21 03:49:12;;;;;;;16.30;12.85;;;32.60;50.70;;;;;;4970597;28;20031;-68
2023/10/21 03:51:39;;;;;;;18.15;11.63;;;33.00;50.40;;;;;;4947442;29;20047;-67
2023/10/21 03:54:07;;;;;;;20.23;12.10;;;33.10;49.70;;;;;;4954361;28;20027;-67
2023/10/21 03:56:34;;;;;;;16.67;12.30;;;33.10;49.70;;;;;;4964244;28;20089;-68
2023/10/21 03:59:01;;;;;;;16.92;11.68;;;32.90;50.00;;;;;;4973304;28;20030;-67
2023/10/21 04:01:30;;;;;;;16.17;11.13;;;33.00;50.00;;;;;;4972398;28;20054;-68
2023/10/21 04:03:58;;;;;;;17.75;12.43;;;32.70;50.20;;;;;;4973485;28;20023;-68
2023/10/21 04:06:25;;;;;;;22.52;12.45;;;32.40;50.50;;;;;;4951603;28;20499;-68
2023/10/21 04:08:52;;;;;;;19.27;11.75;;;32.60;50.60;;;;;;4951016;29;20039;-67
2023/10/21 04:11:21;;;;;;;16.90;11.23;;;32.60;50.40;;;;;;4953512;28;20114;-67
2023/10/21 04:13:48;;;;;;;15.77;11.50;;;32.60;50.40;;;;;;4945991;29;20031;-67
2023/10/21 04:16:15;;;;;;;13.82;10.93;;;32.60;50.10;;;;;;4955069;28;20023;-67
2023/10/21 04:18:43;;;;;;;18.98;11.30;;;32.80;49.60;;;;;;4956136;28;20027;-67
2023/10/21 04:21:10;;;;;;;19.20;11.88;;;32.90;49.40;;;;;;4953543;28;20054;-69
2023/10/21 04:23:37;;;;;;;15.52;11.07;;;33.00;49.30;;;;;;4953992;28;20049;-68
2023/10/21 04:26:05;;;;;;;18.02;12.05;;;33.10;48.90;;;;;;4951797;29;20054;-68
2023/10/21 04:28:33;;;;;;;17.35;11.18;;;32.80;49.00;;;;;;4953472;29;20469;-67
2023/10/21 04:31:01;;;;;;;14.20;10.60;;;32.10;49.60;;;;;;4937877;29;20055;-68
2023/10/21 04:33:28;;;;;;;16.38;11.00;;;31.60;50.70;;;;;;4936692;28;20051;-68
2023/10/21 04:35:56;;;;;;;13.45;9.95;;;31.30;51.30;;;;;;4938991;29;20039;-68
2023/10/21 04:38:23;;;;;;;17.52;9.68;;;31.50;51.10;;;;;;4953892;28;20028;-69
2023/10/21 04:40:50;;;;;;;15.80;9.27;;;31.50;51.10;;;;;;4952759;28;20463;-67
2023/10/21 04:43:17;;;;;;;14.45;8.88;;;31.50;51.40;;;;;;4953620;29;20028;-68
2023/10/21 04:45:45;;;;;;;13.25;9.45;;;31.60;50.90;;;;;;4953395;29;20035;-68
2023/10/21 04:48:12;;;;;;;17.10;9.48;;;31.90;51.20;;;;;;4947924;29;20045;-67
2023/10/21 04:50:39;;;;;;;12.27;8.73;;;31.70;50.00;;;;;;4945633;28;20043;-67
2023/10/21 04:53:07;;;;;;;15.05;8.45;;;31.50;50.90;;;;;;4952872;29;20027;-68
2023/10/21 04:55:34;;;;;;;14.75;9.07;;;31.50;51.50;;;;;;4948824;29;20115;-68
2023/10/21 04:58:01;;;;;;;13.15;7.32;;;31.50;50.60;;;;;;4948330;29;20508;-69
2023/10/21 05:00:29;;;;;;;12.10;8.18;;;31.70;50.70;;;;;;4952552;29;20126;-68
2023/10/21 05:02:56;;;;;;;13.88;7.40;;;31.50;51.10;;;;;;4953264;29;20142;-68
2023/10/21 05:05:23;;;;;;;15.65;7.70;;;31.30;51.60;;;;;;4932556;29;20032;-68
2023/10/21 05:07:51;;;;;;;15.30;7.97;;;31.40;51.80;;;;;;4939319;28;20939;-68
2023/10/21 05:10:18;;;;;;;13.25;7.07;;;31.20;52.00;;;;;;4952994;29;20047;-68
2023/10/21 05:12:45;;;;;;;13.68;7.80;;;31.30;52.10;;;;;;4952958;28;20019;-67
2023/10/21 05:15:13;;;;;;;19.98;8.40;;;31.20;52.40;;;;;;4952691;28;20028;-68
2023/10/21 05:17:40;;;;;;;13.70;7.65;;;30.90;53.10;;;;;;4951541;29;20417;-68
2023/10/21 05:20:08;;;;;;;12.65;7.00;;;30.80;53.60;;;;;;4940121;29;20036;-68
2023/10/21 05:22:36;;;;;;;13.18;7.25;;;30.90;53.90;;;;;;4952621;29;20044;-68
2023/10/21 05:25:03;;;;;;;13.80;7.47;;;31.00;53.70;;;;;;4951495;28;20122;-68
2023/10/21 05:27:30;;;;;;;12.82;7.38;;;31.00;53.70;;;;;;4952788;29;20086;-68
2023/10/21 05:29:58;;;;;;;12.13;6.95;;;30.60;54.60;;;;;;4942319;28;20074;-68
2023/10/21 05:32:25;;;;;;;10.25;6.40;;;30.30;55.50;;;;;;4932873;29;20075;-68
2023/10/21 05:34:52;;;;;;;16.17;7.55;;;30.00;56.10;;;;;;4945729;29;20027;-67
2023/10/21 05:37:20;;;;;;;15.77;7.50;;;30.00;56.70;;;;;;4949976;29;20114;-68
2023/10/21 05:39:47;;;;;;;14.52;6.97;;;30.20;56.60;;;;;;4922460;29;20417;-68
2023/10/21 05:42:15;;;;;;;18.52;7.53;;;30.00;57.00;;;;;;4942847;28;20023;-68
2023/10/21 05:44:42;;;;;;;13.88;6.68;;;30.00;57.90;;;;;;4952492;28;20085;-68
2023/10/21 05:47:09;;;;;;;13.20;7.22;;;30.30;57.50;;;;;;4950505;29;20028;-68
2023/10/21 05:49:37;;;;;;;11.85;6.60;;;30.50;57.40;;;;;;4950870;28;20035;-68
2023/10/21 05:52:04;;;;;;;12.52;7.05;;;30.50;57.50;;;;;;4954037;28;20040;-69
2023/10/21 05:54:32;;;;;;;16.23;6.40;;;30.60;57.40;;;;;;4952074;28;20028;-68
2023/10/21 05:57:00;;;;;;;13.98;6.95;;;30.60;58.20;;;;;;4968010;28;20031;-68
2023/10/21 05:59:27;;;;;;;15.35;7.15;;;30.50;58.20;;;;;;4964316;28;20057;-69
2023/10/21 06:01:54;;;;;;;13.60;6.50;;;30.40;58.20;;;;;;4953513;28;20046;-68
2023/10/21 06:04:22;;;;;;;10.00;5.78;;;30.30;58.60;;;;;;4956217;29;20031;-68
2023/10/21 06:06:54;;;;;;;16.70;6.72;;;30.20;58.50;;;;;;4938371;29;20366;-68
2023/10/21 06:09:26;;;;;;;16.75;8.43;;;30.10;58.50;;;;;;4954609;29;20035;-68
2023/10/21 06:11:54;;;;;;;16.10;6.57;;;29.80;59.10;;;;;;4948876;28;20054;-69
2023/10/21 06:14:21;;;;;;;14.57;6.05;;;29.70;59.90;;;;;;4936933;29;20461;-69
2023/10/21 06:16:49;;;;;;;13.20;6.00;;;29.70;60.00;;;;;;4951335;28;20031;-68
2023/10/21 06:19:16;;;;;;;14.23;6.28;;;29.60;60.10;;;;;;4955288;28;20114;-68
2023/10/21 06:21:43;;;;;;;15.70;6.40;;;29.50;60.80;;;;;;4955747;29;20037;-68
2023/10/21 06:24:11;;;;;;;16.30;6.18;;;29.30;61.80;;;;;;4948254;28;20035;-68
2023/10/21 06:26:38;;;;;;;15.88;6.00;;;29.30;62.00;;;;;;4950275;29;20039;-69
2023/10/21 06:29:06;;;;;;;15.68;6.72;;;29.30;62.50;;;;;;4948998;29;20369;-65
2023/10/21 06:31:33;;;;;;;12.82;5.93;;;29.20;62.50;;;;;;4946212;29;20046;-65
2023/10/21 06:34:01;;;;;;;19.70;7.90;;;29.10;62.60;;;;;;4965288;28;20082;-65
2023/10/21 06:36:28;;;;;;;19.15;7.15;;;29.10;62.70;;;;;;4946685;28;20035;-65
2023/10/21 06:38:57;;;;;;;14.98;6.63;;;29.00;62.80;;;;;;4952724;29;20074;-67
2023/10/21 06:41:24;;;;;;;17.75;6.63;;;28.90;62.70;;;;;;4953739;29;20031;-65
2023/10/21 06:43:52;;;;;;;13.20;5.90;;;28.70;63.50;;;;;;4952701;29;20459;-66
2023/10/21 06:46:20;;;;;;;19.30;6.28;;;28.60;64.30;;;;;;4945497;29;20090;-65
2023/10/21 06:48:48;;;;;;;14.02;5.97;;;28.40;64.20;;;;;;4936552;29;20043;-65
2023/10/21 06:51:17;;;;;;;18.65;6.65;;;28.30;64.10;;;;;;4953600;28;20043;-66
2023/10/21 06:53:45;;;;;;;14.52;5.93;;;28.20;64.90;;;;;;4952738;29;20019;-66
2023/10/21 06:56:13;;;;;;;14.18;5.63;;;28.10;64.90;;;;;;4964071;28;20027;-65
2023/10/21 06:58:41;;;;;;;14.18;6.10;;;28.00;65.30;;;;;;4974491;28;20113;-65
2023/10/21 07:01:08;;;;;;;15.43;6.28;;;27.90;65.70;;;;;;4956939;28;20070;-66
2023/10/21 07:03:36;;;;;;;15.18;5.68;;;27.80;66.20;;;;;;4934452;29;20031;-65
2023/10/21 07:06:07;;;;;;;12.10;5.80;;;27.90;66.50;;;;;;4951704;28;20052;-65
2023/10/21 07:08:37;;;;;;;19.58;6.50;;;27.80;66.90;;;;;;4935987;29;20122;-65
2023/10/21 07:11:04;;;;;;;16.52;5.60;;;27.80;67.40;;;;;;4935578;29;20114;-65
2023/10/21 07:13:32;;;;;;;13.82;5.63;;;27.80;67.40;;;;;;4948438;29;20127;-65
2023/10/21 07:16:13;;;;;;;19.15;6.10;;;27.80;67.30;;;;;;4953500;28;20067;-65
2023/10/21 07:18:41;;;;;;;15.90;5.80;;;27.50;68.10;;;;;;4953276;29;20082;-65
2023/10/21 07:21:09;;;;;;;16.38;5.40;;;27.60;68.50;;;;;;4943715;28;20500;-65
2023/10/21 07:23:36;;;;;;;11.43;4.75;;;27.40;68.80;;;;;;4957157;28;20364;-65
2023/10/21 07:26:05;;;;;;;15.65;5.40;;;27.40;69.30;;;;;;4965709;28;20031;-65
2023/10/21 07:28:36;;;;;;;19.42;6.15;;;27.20;69.90;;;;;;4954290;29;20445;-65
2023/10/21 07:31:03;;;;;;;15.85;5.03;;;27.10;70.50;;;;;;4953896;28;20132;-65
2023/10/21 07:33:31;;;;;;;14.25;4.68;;;26.90;70.50;;;;;;4951676;28;20075;-67
2023/10/21 07:35:58;;;;;;;12.32;4.88;;;26.70;70.60;;;;;;4948239;29;20122;-67
2023/10/21 07:38:25;;;;;;;11.25;4.32;;;26.60;71.10;;;;;;4948960;29;20026;-67
2023/10/21 07:40:53;;;;;;;13.15;4.47;;;26.60;70.60;;;;;;4957791;28;20023;-67
2023/10/21 07:43:20;;;;;;;14.98;5.18;;;26.60;70.50;;;;;;4971912;28;20027;-67
2023/10/21 07:45:48;;;;;;;14.10;4.95;;;26.40;71.00;;;;;;4964303;28;20382;-67
2023/10/21 07:48:16;;;;;;;11.98;4.88;;;26.30;71.20;;;;;;4948430;29;20476;-67
2023/10/21 07:50:43;;;;;;;14.25;5.00;;;26.30;71.20;;;;;;4953338;29;20066;-66
2023/10/21 07:53:10;;;;;;;18.42;5.60;;;26.30;71.20;;;;;;4947449;29;20027;-66
2023/10/21 07:55:38;;;;;;;19.48;4.80;;;26.30;71.40;;;;;;4938255;29;20023;-66
2023/10/21 07:58:05;;;;;;;17.23;5.35;;;26.20;72.00;;;;;;4951590;28;20031;-66
2023/10/21 08:00:33;;;;;;;19.38;5.07;;;26.10;72.10;;;;;;4954202;29;20027;-66
2023/10/21 08:03:00;;;;;;;11.32;5.13;;;25.90;72.90;;;;;;4953928;29;20027;-66
2023/10/21 08:05:28;;;;;;;16.13;5.45;;;25.80;73.30;;;;;;4936551;29;20453;-66
2023/10/21 08:07:55;;;;;;;17.85;5.15;;;25.60;74.00;;;;;;4952354;29;20113;-66
2023/10/21 08:10:23;;;;;;;18.23;6.10;;;25.50;74.30;;;;;;4950503;29;20050;-66
2023/10/21 08:12:50;;;;;;;17.98;5.90;;;25.40;75.00;;;;;;4934493;29;20023;-66
2023/10/21 08:15:18;;;;;;;19.98;6.05;;;25.30;75.40;;;;;;4944799;28;20037;-66
2023/10/21 08:17:45;;;;;;;17.23;5.28;;;25.20;76.10;;;;;;4951964;29;20459;-66
2023/10/21 08:20:12;;;;;;;16.08;6.15;;;25.10;76.70;;;;;;4950502;28;20035;-66
2023/10/21 08:22:40;;;;;;;12.95;5.15;;;25.00;77.70;;;;;;4952994;29;20110;-66
2023/10/21 08:25:08;;;;;;;15.57;5.30;;;24.90;77.70;;;;;;4948553;28;20088;-66
2023/10/21 08:27:38;;;;;;;17.58;5.47;;;25.00;77.90;;;;;;4944480;29;20087;-66
2023/10/21 08:30:09;;;;;;;24.48;11.95;;;24.90;78.70;;;;;;4917176;29;20110;-65
2023/10/21 08:32:37;;;;;;;17.92;8.90;;;24.90;78.80;;;;;;4946835;28;20489;-66
2023/10/21 08:35:05;;;;;;;21.45;6.93;;;24.90;79.20;;;;;;4952060;29;20551;-65
2023/10/21 08:37:32;;;;;;;21.13;6.60;;;24.70;79.60;;;;;;4951136;28;20086;-66
2023/10/21 08:40:07;;;;;;;19.98;5.88;;;24.70;80.00;;;;;;4953039;29;20019;-65
2023/10/21 08:42:35;;;;;;;17.38;5.30;;;24.60;80.50;;;;;;4944278;29;20035;-66
2023/10/21 08:45:09;;;;;;;19.65;6.07;;;24.60;81.10;;;;;;4942860;29;20020;-67
2023/10/21 08:47:38;;;;;;;20.58;7.65;;;24.60;81.30;;;;;;4946348;29;20035;-66
2023/10/21 08:50:07;;;;;;;21.30;7.25;;;24.40;82.30;;;;;;4956268;28;20071;-66
2023/10/21 08:52:36;;;;;;;20.92;7.43;;;24.40;82.80;;;;;;4944536;29;20078;-67
2023/10/21 08:55:05;;;;;;;16.98;6.03;;;24.40;83.20;;;;;;4945755;28;20472;-67
2023/10/21 08:57:33;;;;;;;20.52;5.53;;;24.20;83.90;;;;;;4944534;29;20150;-67
2023/10/21 09:00:04;;;;;;;15.07;5.22;;;24.10;85.20;;;;;;4939212;29;20035;-67
2023/10/21 09:02:31;;;;;;;17.23;5.55;;;24.20;85.20;;;;;;4940716;29;20035;-66
2023/10/21 09:04:59;;;;;;;16.77;5.43;;;24.30;85.20;;;;;;4953142;29;20027;-66
2023/10/21 09:07:45;;;;;;;16.88;5.13;;;24.30;84.90;;;;;;4949813;28;20085;-67
2023/10/21 09:10:13;;;;;;;13.27;5.18;;;24.40;85.70;;;;;;4948085;29;20130;-67
2023/10/21 09:12:41;;;;;;;18.23;5.78;;;24.40;84.60;;;;;;4950420;29;20055;-67
2023/10/21 09:15:09;;;;;;;19.52;8.60;;;24.30;85.10;;;;;;4945863;28;20026;-67
2023/10/21 09:17:39;;;;;;;16.60;6.50;;;24.20;85.80;;;;;;4944249;28;20031;-67
2023/10/21 09:20:13;;;;;;;19.95;4.63;;;24.30;86.20;;;;;;4945083;28;20038;-67
2023/10/21 09:22:42;;;;;;;16.50;5.18;;;24.20;86.10;;;;;;4952049;28;20038;-66
2023/10/21 09:25:20;;;;;;;22.27;6.43;;;24.20;86.40;;;;;;4953622;28;20491;-66
2023/10/21 09:27:57;;;;;;;21.95;6.30;;;24.00;87.10;;;;;;4952828;29;20117;-66
2023/10/21 09:30:27;;;;;;;20.27;4.68;;;24.00;88.00;;;;;;4950980;29;20086;-65
2023/10/21 09:33:07;;;;;;;14.90;4.68;;;24.00;87.70;;;;;;4948979;29;20055;-67
2023/10/21 09:35:36;;;;;;;19.65;4.38;;;24.10;87.30;;;;;;4947595;29;20032;-66
2023/10/21 09:38:20;;;;;;;20.17;4.43;;;24.00;87.60;;;;;;4944836;29;20027;-67
2023/10/21 09:40:48;;;;;;;18.10;5.22;;;24.00;87.70;;;;;;4951270;28;20036;-67
2023/10/21 09:43:17;;;;;;;21.33;4.47;;;23.80;88.30;;;;;;4949868;28;20042;-66
2023/10/21 09:45:46;;;;;;;18.83;4.55;;;23.80;88.60;;;;;;4951255;28;20118;-67
2023/10/21 09:48:13;;;;;;;15.52;4.35;;;23.80;88.80;;;;;;4950214;28;20024;-66
2023/10/21 09:50:51;;;;;;;18.98;3.97;;;23.80;89.00;;;;;;4948146;29;20481;-66
2023/10/21 09:53:25;;;;;;;27.55;4.70;;;24.00;88.20;;;;;;4945109;28;20031;-66
2023/10/21 09:55:55;;;;;;;19.77;4.38;;;23.90;88.20;;;;;;4950521;29;20054;-67
2023/10/21 09:58:26;;;;;;;21.38;4.50;;;23.90;88.70;;;;;;4951628;28;20513;-67
2023/10/21 10:00:55;;;;;;;18.38;4.20;;;23.70;89.40;;;;;;4933046;29;20372;-66
2023/10/21 10:03:24;;;;;;;21.58;4.57;;;23.70;89.30;;;;;;4948037;29;20028;-66
2023/10/21 10:05:52;;;;;;;21.67;4.78;;;23.70;89.10;;;;;;4947357;29;20038;-66
2023/10/21 10:08:20;;;;;;;17.23;4.10;;;23.80;89.10;;;;;;4926450;29;20491;-66
2023/10/21 10:10:49;;;;;;;17.50;4.93;;;23.80;88.80;;;;;;4950113;29;20043;-66
2023/10/21 10:13:16;;;;;;;19.42;4.90;;;23.80;89.10;;;;;;4951286;28;20115;-66
2023/10/21 10:15:44;;;;;;;21.90;4.30;;;23.60;90.00;;;;;;4952544;28;20054;-66
2023/10/21 10:18:22;;;;;;;23.60;4.65;;;23.40;90.30;;;;;;4952617;29;20069;-66
2023/10/21 10:20:53;;;;;;;21.50;4.80;;;23.30;90.70;;;;;;4950416;29;20082;-69
2023/10/21 10:23:24;;;;;;;21.08;5.10;;;23.00;91.00;;;;;;4947239;29;20027;-69
2023/10/21 10:25:54;;;;;;;22.55;4.75;;;22.80;91.40;;;;;;4949850;29;20023;-69
2023/10/21 10:28:25;;;;;;;21.90;5.20;;;22.80;91.70;;;;;;4945137;29;20054;-69
2023/10/21 10:30:54;;;;;;;17.77;4.68;;;22.60;92.10;;;;;;4952141;28;20035;-69
2023/10/21 10:33:34;;;;;;;21.35;4.90;;;22.40;92.40;;;;;;4950618;28;20102;-68
2023/10/21 10:36:06;;;;;;;15.43;4.35;;;22.40;92.70;;;;;;4948687;29;20369;-69
2023/10/21 10:38:42;;;;;;;19.17;4.10;;;22.40;92.60;;;;;;4952781;28;20042;-69
2023/10/21 10:41:14;;;;;;;20.40;4.30;;;22.40;92.70;;;;;;4955223;29;20118;-69
2023/10/21 10:43:46;;;;;;;18.15;3.63;;;22.20;92.90;;;;;;4949601;29;20163;-69
2023/10/21 10:46:26;;;;;;;20.77;4.85;;;22.30;92.80;;;;;;4950825;28;20125;-69
2023/10/21 10:48:53;;;;;;;17.42;3.97;;;22.20;93.10;;;;;;4954923;28;20195;-68
2023/10/21 10:51:30;;;;;;;11.82;4.03;;;22.10;93.50;;;;;;4953710;29;20054;-69
2023/10/21 10:54:05;;;;;;;20.58;4.95;;;22.10;93.60;;;;;;4936818;29;20038;-69
2023/10/21 10:56:49;;;;;;;24.10;4.20;;;22.30;93.40;;;;;;4952041;29;20031;-68
2023/10/21 10:59:22;;;;;;;19.33;4.85;;;22.10;93.40;;;;;;4955499;29;20082;-68
2023/10/21 11:02:01;;;;;;;19.38;4.38;;;21.90;93.70;;;;;;4941660;29;20042;-68
2023/10/21 11:04:32;;;;;;;19.67;4.75;;;21.80;94.00;;;;;;4948541;28;20035;-68
2023/10/21 11:07:03;;;;;;;20.50;4.97;;;21.80;94.10;;;;;;4954530;29;20469;-68
2023/10/21 11:09:30;;;;;;;15.13;4.47;;;21.80;94.00;;;;;;4955396;29;20023;-68
2023/10/21 11:11:58;;;;;;;18.02;4.95;;;21.70;94.30;;;;;;4955183;28;20036;-68
2023/10/21 11:14:27;;;;;;;18.58;4.07;;;21.60;94.30;;;;;;4955492;28;20035;-68
2023/10/21 11:16:55;;;;;;;18.95;4.13;;;21.50;94.30;;;;;;4952934;29;20035;-68
2023/10/21 11:19:24;;;;;;;25.10;4.97;;;21.50;94.70;;;;;;4951137;28;20059;-68
2023/10/21 11:21:52;;;;;;;22.17;4.35;;;21.70;94.20;;;;;;4957556;28;20077;-68
2023/10/21 11:24:19;;;;;;;18.98;4.22;;;21.60;94.10;;;;;;4955120;29;20035;-68
2023/10/21 11:26:49;;;;;;;20.30;3.80;;;21.50;94.40;;;;;;4953983;28;20125;-68
2023/10/21 11:29:17;;;;;;;23.23;4.38;;;21.40;94.40;;;;;;4953092;29;20023;-68
2023/10/21 11:31:45;;;;;;;17.17;3.97;;;21.30;94.50;;;;;;4953136;28;20046;-67
2023/10/21 11:34:17;;;;;;;18.42;4.60;;;21.20;94.70;;;;;;4951653;28;20043;-68
2023/10/21 11:36:49;;;;;;;15.98;3.92;;;21.20;95.00;;;;;;4943330;29;20023;-68
2023/10/21 11:39:17;;;;;;;22.40;4.97;;;21.20;95.00;;;;;;4954300;28;20027;-68
2023/10/21 11:41:54;;;;;;;22.75;4.05;;;21.20;95.10;;;;;;4950980;28;20041;-68
2023/10/21 11:44:32;;;;;;;19.00;4.70;;;21.10;95.20;;;;;;4943372;29;20027;-68
2023/10/21 11:47:04;;;;;;;18.40;5.10;;;21.10;95.30;;;;;;4953970;29;20094;-68
2023/10/21 11:49:41;;;;;;;24.58;4.72;;;21.10;95.60;;;;;;4953513;28;20416;-68
2023/10/21 11:52:10;;;;;;;;;;;21.00;95.50;;;;;;4952904;29;20047;-68
2023/10/21 11:54:46;;;;;;;17.20;4.57;;;21.00;95.50;;;;;;4945610;28;19973;-67
2023/10/21 12:13:49;;;;;;;18.13;4.60;;;20.80;95.30;;;;;;4945452;28;20126;-68
2023/10/21 12:40:33;;;;;;;18.75;5.38;;;20.20;96.40;;;;;;4949033;29;20039;-68
2023/10/21 12:45:46;;;;;;;18.98;4.75;;;20.20;96.50;;;;;;4953555;29;20077;-67
2023/10/21 12:48:21;;;;;;;16.30;4.82;;;20.20;96.70;;;;;;4958845;28;20027;-67
2023/10/21 12:50:54;;;;;;;21.92;5.65;;;20.20;96.90;;;;;;4953704;28;20043;-68
2023/10/21 12:53:22;;;;;;;22.02;4.18;;;20.30;97.00;;;;;;4969267;28;20066;-68
2023/10/21 12:55:49;;;;;;;20.48;5.00;;;20.30;96.80;;;;;;4973181;28;20074;-68
2023/10/21 12:58:16;;;;;;;24.98;5.90;;;20.40;96.70;;;;;;4950802;29;20031;-68
2023/10/21 13:00:44;;;;;;;27.88;5.88;;;20.60;96.60;;;;;;4949624;28;20424;-68
2023/10/21 13:03:12;;;;;;;21.02;5.00;;;20.80;96.40;;;;;;4953224;28;20023;-68
2023/10/21 13:05:46;;;;;;;23.35;5.57;;;21.00;96.10;;;;;;4953253;28;20474;-68
2023/10/21 13:08:13;;;;;;;21.42;5.43;;;20.90;96.10;;;;;;4951563;29;20023;-67
2023/10/21 13:10:40;;;;;;;22.88;5.82;;;20.80;96.40;;;;;;4952417;29;20043;-68
2023/10/21 13:13:11;;;;;;;21.00;5.80;;;20.70;96.30;;;;;;4952410;29;20484;-68
2023/10/21 13:15:38;;;;;;;20.83;5.60;;;20.50;96.80;;;;;;4953615;28;20034;-69
2023/10/21 13:18:07;;;;;;;26.35;5.15;;;20.70;96.70;;;;;;4926965;29;20035;-68
2023/10/21 13:20:35;;;;;;;21.20;6.10;;;20.90;96.20;;;;;;4957340;28;20038;-68
2023/10/21 13:23:04;;;;;;;16.55;5.40;;;20.90;95.90;;;;;;4972471;28;20027;-68
2023/10/21 13:25:33;;;;;;;22.42;5.40;;;20.90;95.90;;;;;;4954495;28;20516;-68
2023/10/21 13:28:01;;;;;;;20.38;4.53;;;21.00;95.80;;;;;;4947606;29;20453;-68